sensor_id;sensor_type;location;lat;lon;timestamp;temperature;humidity
42365;DHT22;28498;54.400;18.566;2022-08-05T00:01:29;22.90;99.90
42365;DHT22;28498;54.400;18.566;2022-08-05T00:04:14;22.90;99.90
42365;DHT22;28498;54.400;18.566;2022-08-05T00:06:41;22.90;99.90
42365;DHT22;28498;54.400;18.566;2022-08-05T00:09:09;22.80;99.90
42365;DHT22;28498;54.400;18.566;2022-08-05T00:11:38;22.80;99.90
42365;DHT22;28498;54.400;18.566;2022-08-05T00:14:14;22.90;99.90
42365;DHT22;28498;54.400;18.566;2022-08-05T00:16:43;22.80;99.90
42365;DHT22;28498;54.400;18.566;2022-08-05T00:19:22;22.80;99.90
42365;DHT22;28498;54.400;18.566;2022-08-05T00:21:58;22.70;99.90
42365;DHT22;28498;54.400;18.566;2022-08-05T00:24:25;22.80;99.90
42365;DHT22;28498;54.400;18.566;2022-08-05T00:26:58;22.80;99.90
42365;DHT22;28498;54.400;18.566;2022-08-05T00:29:25;22.70;99.90
42365;DHT22;28498;54.400;18.566;2022-08-05T00:31:58;22.60;99.90
42365;DHT22;28498;54.400;18.566;2022-08-05T00:34:42;22.50;99.90
42365;DHT22;28498;54.400;18.566;2022-08-05T00:37:29;22.50;99.90
42365;DHT22;28498;54.400;18.566;2022-08-05T00:40:17;22.40;99.90
42365;DHT22;28498;54.400;18.566;2022-08-05T00:43:01;22.40;99.90
42365;DHT22;28498;54.400;18.566;2022-08-05T00:45:33;22.30;99.90
42365;DHT22;28498;54.400;18.566;2022-08-05T00:48:13;22.30;99.90
42365;DHT22;28498;54.400;18.566;2022-08-05T00:50:42;22.30;99.90
42365;DHT22;28498;54.400;18.566;2022-08-05T00:53:16;22.20;99.90
42365;DHT22;28498;54.400;18.566;2022-08-05T00:56:04;22.10;1.00
42365;DHT22;28498;54.400;18.566;2022-08-05T00:58:33;22.00;11.40
42365;DHT22;28498;54.400;18.566;2022-08-05T01:01:02;21.90;99.90
42365;DHT22;28498;54.400;18.566;2022-08-05T01:03:34;21.80;99.90
42365;DHT22;28498;54.400;18.566;2022-08-05T01:06:01;21.70;1.00
42365;DHT22;28498;54.400;18.566;2022-08-05T01:08:31;21.60;99.90
42365;DHT22;28498;54.400;18.566;2022-08-05T01:11:16;21.60;99.90
42365;DHT22;28498;54.400;18.566;2022-08-05T01:14:03;21.50;99.90
42365;DHT22;28498;54.400;18.566;2022-08-05T01:16:42;21.40;1.00
42365;DHT22;28498;54.400;18.566;2022-08-05T01:31:39;21.00;2.90
42365;DHT22;28498;54.400;18.566;2022-08-05T01:34:31;21.00;99.90
42365;DHT22;28498;54.400;18.566;2022-08-05T01:39:31;20.80;1.00
42365;DHT22;28498;54.400;18.566;2022-08-05T01:42:15;20.80;58.10
42365;DHT22;28498;54.400;18.566;2022-08-05T01:44:43;20.80;94.20
42365;DHT22;28498;54.400;18.566;2022-08-05T01:47:20;20.70;99.90
42365;DHT22;28498;54.400;18.566;2022-08-05T01:49:51;20.60;99.90
42365;DHT22;28498;54.400;18.566;2022-08-05T01:52:28;20.50;99.90
42365;DHT22;28498;54.400;18.566;2022-08-05T01:55:02;20.50;99.90
42365;DHT22;28498;54.400;18.566;2022-08-05T01:57:36;20.50;99.90
42365;DHT22;28498;54.400;18.566;2022-08-05T02:00:24;20.40;99.90
42365;DHT22;28498;54.400;18.566;2022-08-05T02:03:05;20.40;99.90
42365;DHT22;28498;54.400;18.566;2022-08-05T02:05:51;20.40;99.90
42365;DHT22;28498;54.400;18.566;2022-08-05T02:08:23;20.30;99.90
42365;DHT22;28498;54.400;18.566;2022-08-05T02:11:02;20.40;99.90
42365;DHT22;28498;54.400;18.566;2022-08-05T02:16:50;20.30;99.90
42365;DHT22;28498;54.400;18.566;2022-08-05T02:19:36;20.30;99.90
42365;DHT22;28498;54.400;18.566;2022-08-05T02:22:20;20.30;99.90
42365;DHT22;28498;54.400;18.566;2022-08-05T02:24:57;20.20;99.90
42365;DHT22;28498;54.400;18.566;2022-08-05T02:27:29;20.20;99.90
42365;DHT22;28498;54.400;18.566;2022-08-05T02:30:18;20.10;99.90
42365;DHT22;28498;54.400;18.566;2022-08-05T02:32:48;20.10;99.90
42365;DHT22;28498;54.400;18.566;2022-08-05T02:35:20;20.10;99.90
42365;DHT22;28498;54.400;18.566;2022-08-05T02:37:55;20.00;99.90
42365;DHT22;28498;54.400;18.566;2022-08-05T02:40:25;20.00;99.90
42365;DHT22;28498;54.400;18.566;2022-08-05T02:42:54;20.00;99.90
42365;DHT22;28498;54.400;18.566;2022-08-05T02:45:22;20.00;1.00
42365;DHT22;28498;54.400;18.566;2022-08-05T02:47:52;19.90;1.00
42365;DHT22;28498;54.400;18.566;2022-08-05T02:50:39;19.90;1.00
42365;DHT22;28498;54.400;18.566;2022-08-05T02:53:11;19.90;1.00
42365;DHT22;28498;54.400;18.566;2022-08-05T02:55:46;19.80;1.00
42365;DHT22;28498;54.400;18.566;2022-08-05T02:58:25;19.80;1.00
42365;DHT22;28498;54.400;18.566;2022-08-05T03:00:57;19.70;1.00
42365;DHT22;28498;54.400;18.566;2022-08-05T03:03:27;19.60;1.00
42365;DHT22;28498;54.400;18.566;2022-08-05T03:06:00;19.60;1.00
42365;DHT22;28498;54.400;18.566;2022-08-05T03:08:48;19.60;1.00
42365;DHT22;28498;54.400;18.566;2022-08-05T03:11:25;19.60;1.00
42365;DHT22;28498;54.400;18.566;2022-08-05T03:14:12;19.60;1.00
42365;DHT22;28498;54.400;18.566;2022-08-05T03:16:40;19.60;1.00
42365;DHT22;28498;54.400;18.566;2022-08-05T03:19:07;19.60;1.00
42365;DHT22;28498;54.400;18.566;2022-08-05T03:21:46;19.60;1.00
42365;DHT22;28498;54.400;18.566;2022-08-05T03:24:19;19.60;1.00
42365;DHT22;28498;54.400;18.566;2022-08-05T03:26:57;19.60;1.00
42365;DHT22;28498;54.400;18.566;2022-08-05T03:29:24;19.60;1.00
42365;DHT22;28498;54.400;18.566;2022-08-05T03:32:12;19.70;99.90
42365;DHT22;28498;54.400;18.566;2022-08-05T03:34:42;19.80;99.90
42365;DHT22;28498;54.400;18.566;2022-08-05T03:37:18;19.80;99.90
42365;DHT22;28498;54.400;18.566;2022-08-05T03:39:54;19.90;99.90
42365;DHT22;28498;54.400;18.566;2022-08-05T03:42:27;19.90;99.90
42365;DHT22;28498;54.400;18.566;2022-08-05T03:45:07;20.00;99.90
42365;DHT22;28498;54.400;18.566;2022-08-05T03:47:49;20.10;99.90
42365;DHT22;28498;54.400;18.566;2022-08-05T03:50:17;20.20;99.90
42365;DHT22;28498;54.400;18.566;2022-08-05T03:52:51;20.30;99.90
42365;DHT22;28498;54.400;18.566;2022-08-05T03:55:45;20.50;94.10
42365;DHT22;28498;54.400;18.566;2022-08-05T03:58:37;20.60;1.00
42365;DHT22;28498;54.400;18.566;2022-08-05T04:01:07;20.90;99.90
42365;DHT22;28498;54.400;18.566;2022-08-05T04:03:39;21.30;1.00
42365;DHT22;28498;54.400;18.566;2022-08-05T04:06:28;21.70;99.90
42365;DHT22;28498;54.400;18.566;2022-08-05T04:08:55;21.80;99.90
42365;DHT22;28498;54.400;18.566;2022-08-05T04:11:23;21.80;99.90
42365;DHT22;28498;54.400;18.566;2022-08-05T04:14:11;21.70;99.90
42365;DHT22;28498;54.400;18.566;2022-08-05T04:16:44;21.60;99.90
42365;DHT22;28498;54.400;18.566;2022-08-05T04:19:12;21.70;99.90
42365;DHT22;28498;54.400;18.566;2022-08-05T04:21:39;21.60;99.90
42365;DHT22;28498;54.400;18.566;2022-08-05T04:24:26;21.60;99.90
42365;DHT22;28498;54.400;18.566;2022-08-05T04:26:54;21.50;99.90
42365;DHT22;28498;54.400;18.566;2022-08-05T04:29:23;21.50;99.90
42365;DHT22;28498;54.400;18.566;2022-08-05T04:31:52;21.50;99.90
42365;DHT22;28498;54.400;18.566;2022-08-05T04:34:22;21.50;99.90
42365;DHT22;28498;54.400;18.566;2022-08-05T04:37:00;21.60;99.90
42365;DHT22;28498;54.400;18.566;2022-08-05T04:39:29;21.80;99.90
42365;DHT22;28498;54.400;18.566;2022-08-05T04:41:57;22.10;1.00
42365;DHT22;28498;54.400;18.566;2022-08-05T04:44:24;22.30;99.90
42365;DHT22;28498;54.400;18.566;2022-08-05T04:46:59;22.30;99.90
42365;DHT22;28498;54.400;18.566;2022-08-05T04:49:39;22.40;13.60
42365;DHT22;28498;54.400;18.566;2022-08-05T04:52:26;22.40;1.00
42365;DHT22;28498;54.400;18.566;2022-08-05T04:54:54;22.40;1.00
42365;DHT22;28498;54.400;18.566;2022-08-05T04:57:23;22.30;1.00
42365;DHT22;28498;54.400;18.566;2022-08-05T04:59:55;22.30;1.00
42365;DHT22;28498;54.400;18.566;2022-08-05T05:02:24;22.40;99.90
42365;DHT22;28498;54.400;18.566;2022-08-05T05:05:06;22.50;99.90
42365;DHT22;28498;54.400;18.566;2022-08-05T05:07:54;22.70;99.90
42365;DHT22;28498;54.400;18.566;2022-08-05T05:10:28;23.00;60.20
42365;DHT22;28498;54.400;18.566;2022-08-05T05:12:56;23.60;99.90
42365;DHT22;28498;54.400;18.566;2022-08-05T05:15:26;23.80;99.90
42365;DHT22;28498;54.400;18.566;2022-08-05T05:18:14;24.20;99.90
42365;DHT22;28498;54.400;18.566;2022-08-05T05:20:59;24.10;34.10
42365;DHT22;28498;54.400;18.566;2022-08-05T05:23:26;24.00;10.80
42365;DHT22;28498;54.400;18.566;2022-08-05T05:26:13;24.00;1.00
42365;DHT22;28498;54.400;18.566;2022-08-05T05:28:40;23.90;1.00
42365;DHT22;28498;54.400;18.566;2022-08-05T05:31:10;23.80;1.00
42365;DHT22;28498;54.400;18.566;2022-08-05T05:33:37;23.90;1.00
42365;DHT22;28498;54.400;18.566;2022-08-05T05:36:24;24.10;1.00
42365;DHT22;28498;54.400;18.566;2022-08-05T05:38:54;24.00;1.00
42365;DHT22;28498;54.400;18.566;2022-08-05T05:41:23;23.90;1.00
42365;DHT22;28498;54.400;18.566;2022-08-05T05:43:49;24.10;1.00
42365;DHT22;28498;54.400;18.566;2022-08-05T05:46:24;24.10;1.00
42365;DHT22;28498;54.400;18.566;2022-08-05T05:48:51;24.30;1.00
42365;DHT22;28498;54.400;18.566;2022-08-05T05:51:20;24.50;99.90
42365;DHT22;28498;54.400;18.566;2022-08-05T05:53:48;24.50;99.90
42365;DHT22;28498;54.400;18.566;2022-08-05T05:56:28;24.50;99.90
42365;DHT22;28498;54.400;18.566;2022-08-05T05:59:05;24.70;99.90
42365;DHT22;28498;54.400;18.566;2022-08-05T06:01:34;24.70;99.90
42365;DHT22;28498;54.400;18.566;2022-08-05T06:04:08;24.80;99.90
42365;DHT22;28498;54.400;18.566;2022-08-05T06:06:41;24.90;99.90
42365;DHT22;28498;54.400;18.566;2022-08-05T06:09:13;25.10;99.90
42365;DHT22;28498;54.400;18.566;2022-08-05T06:11:51;25.30;99.90
42365;DHT22;28498;54.400;18.566;2022-08-05T06:14:31;25.30;99.90
42365;DHT22;28498;54.400;18.566;2022-08-05T06:17:00;25.40;99.90
42365;DHT22;28498;54.400;18.566;2022-08-05T06:19:48;25.50;56.70
42365;DHT22;28498;54.400;18.566;2022-08-05T06:22:27;25.80;4.40
42365;DHT22;28498;54.400;18.566;2022-08-05T06:24:54;25.90;1.00
42365;DHT22;28498;54.400;18.566;2022-08-05T06:27:22;26.10;1.00
42365;DHT22;28498;54.400;18.566;2022-08-05T06:30:09;26.10;1.00
42365;DHT22;28498;54.400;18.566;2022-08-05T06:32:47;26.10;1.00
42365;DHT22;28498;54.400;18.566;2022-08-05T06:35:17;26.10;99.90
42365;DHT22;28498;54.400;18.566;2022-08-05T06:38:04;26.10;99.90
42365;DHT22;28498;54.400;18.566;2022-08-05T06:40:37;26.20;99.90
42365;DHT22;28498;54.400;18.566;2022-08-05T06:43:10;26.50;99.90
42365;DHT22;28498;54.400;18.566;2022-08-05T06:45:57;26.70;99.90
42365;DHT22;28498;54.400;18.566;2022-08-05T06:48:33;26.60;99.90
42365;DHT22;28498;54.400;18.566;2022-08-05T06:51:21;26.70;99.90
42365;DHT22;28498;54.400;18.566;2022-08-05T06:53:57;26.80;99.90
42365;DHT22;28498;54.400;18.566;2022-08-05T06:56:25;26.80;99.90
42365;DHT22;28498;54.400;18.566;2022-08-05T06:58:53;26.80;99.90
42365;DHT22;28498;54.400;18.566;2022-08-05T07:01:20;26.90;99.90
42365;DHT22;28498;54.400;18.566;2022-08-05T07:03:48;26.90;99.90
42365;DHT22;28498;54.400;18.566;2022-08-05T07:06:15;26.90;99.90
42365;DHT22;28498;54.400;18.566;2022-08-05T07:08:46;26.60;99.90
42365;DHT22;28498;54.400;18.566;2022-08-05T07:15:01;27.00;99.90
42365;DHT22;28498;54.400;18.566;2022-08-05T07:18:06;27.20;99.90
42365;DHT22;28498;54.400;18.566;2022-08-05T07:20:37;27.20;99.90
42365;DHT22;28498;54.400;18.566;2022-08-05T07:23:04;27.20;99.90
42365;DHT22;28498;54.400;18.566;2022-08-05T07:25:32;27.00;99.90
42365;DHT22;28498;54.400;18.566;2022-08-05T07:28:18;26.90;99.90
42365;DHT22;28498;54.400;18.566;2022-08-05T07:30:46;26.90;99.90
42365;DHT22;28498;54.400;18.566;2022-08-05T07:37:08;27.20;99.90
42365;DHT22;28498;54.400;18.566;2022-08-05T07:39:37;27.20;92.90
42365;DHT22;28498;54.400;18.566;2022-08-05T07:46:05;27.40;57.60
42365;DHT22;28498;54.400;18.566;2022-08-05T07:48:49;27.50;44.90
42365;DHT22;28498;54.400;18.566;2022-08-05T07:51:32;27.80;13.40
42365;DHT22;28498;54.400;18.566;2022-08-05T07:54:07;27.80;1.00
42365;DHT22;28498;54.400;18.566;2022-08-05T07:56:36;27.90;1.00
42365;DHT22;28498;54.400;18.566;2022-08-05T07:59:24;27.80;1.00
42365;DHT22;28498;54.400;18.566;2022-08-05T08:02:05;27.80;1.00
42365;DHT22;28498;54.400;18.566;2022-08-05T08:04:45;27.80;1.00
42365;DHT22;28498;54.400;18.566;2022-08-05T08:07:14;28.00;1.00
42365;DHT22;28498;54.400;18.566;2022-08-05T08:09:43;28.10;1.00
42365;DHT22;28498;54.400;18.566;2022-08-05T08:12:11;28.10;1.00
42365;DHT22;28498;54.400;18.566;2022-08-05T08:15:01;28.30;1.00
42365;DHT22;28498;54.400;18.566;2022-08-05T08:17:31;28.30;1.00
42365;DHT22;28498;54.400;18.566;2022-08-05T08:20:01;28.70;1.00
42365;DHT22;28498;54.400;18.566;2022-08-05T08:22:52;28.70;1.00
42365;DHT22;28498;54.400;18.566;2022-08-05T08:25:22;28.90;1.00
42365;DHT22;28498;54.400;18.566;2022-08-05T08:28:09;29.00;99.90
42365;DHT22;28498;54.400;18.566;2022-08-05T08:30:44;29.10;99.90
42365;DHT22;28498;54.400;18.566;2022-08-05T08:33:15;29.10;99.90
42365;DHT22;28498;54.400;18.566;2022-08-05T08:35:42;29.00;99.90
42365;DHT22;28498;54.400;18.566;2022-08-05T08:38:29;29.00;99.90
42365;DHT22;28498;54.400;18.566;2022-08-05T08:41:09;28.90;99.90
42365;DHT22;28498;54.400;18.566;2022-08-05T08:43:39;29.00;99.90
42365;DHT22;28498;54.400;18.566;2022-08-05T08:46:30;29.00;99.90
42365;DHT22;28498;54.400;18.566;2022-08-05T08:48:57;29.00;99.90
42365;DHT22;28498;54.400;18.566;2022-08-05T08:52:10;29.10;99.90
42365;DHT22;28498;54.400;18.566;2022-08-05T08:54:39;29.20;99.90
42365;DHT22;28498;54.400;18.566;2022-08-05T08:57:07;29.50;99.90
42365;DHT22;28498;54.400;18.566;2022-08-05T08:59:37;29.50;99.90
42365;DHT22;28498;54.400;18.566;2022-08-05T09:02:13;29.40;99.90
42365;DHT22;28498;54.400;18.566;2022-08-05T09:04:43;29.60;99.90
42365;DHT22;28498;54.400;18.566;2022-08-05T09:07:31;29.60;99.90
42365;DHT22;28498;54.400;18.566;2022-08-05T09:10:19;29.70;99.90
42365;DHT22;28498;54.400;18.566;2022-08-05T09:12:52;29.80;99.90
42365;DHT22;28498;54.400;18.566;2022-08-05T09:15:21;30.10;99.90
42365;DHT22;28498;54.400;18.566;2022-08-05T09:17:50;30.10;99.90
42365;DHT22;28498;54.400;18.566;2022-08-05T09:20:18;30.30;99.90
42365;DHT22;28498;54.400;18.566;2022-08-05T09:23:03;30.60;99.90
42365;DHT22;28498;54.400;18.566;2022-08-05T09:25:36;30.50;99.90
42365;DHT22;28498;54.400;18.566;2022-08-05T09:28:24;30.50;99.90
42365;DHT22;28498;54.400;18.566;2022-08-05T09:31:04;30.50;99.90
42365;DHT22;28498;54.400;18.566;2022-08-05T09:36:46;30.40;99.90
42365;DHT22;28498;54.400;18.566;2022-08-05T09:39:25;30.60;99.90
42365;DHT22;28498;54.400;18.566;2022-08-05T09:42:13;30.60;99.90
42365;DHT22;28498;54.400;18.566;2022-08-05T09:44:51;30.50;99.90
42365;DHT22;28498;54.400;18.566;2022-08-05T09:51:09;30.60;99.90
42365;DHT22;28498;54.400;18.566;2022-08-05T09:53:49;30.60;99.90
42365;DHT22;28498;54.400;18.566;2022-08-05T09:56:25;30.60;99.90
42365;DHT22;28498;54.400;18.566;2022-08-05T09:59:00;30.80;99.90
42365;DHT22;28498;54.400;18.566;2022-08-05T10:01:30;30.90;99.90
42365;DHT22;28498;54.400;18.566;2022-08-05T10:04:07;30.90;99.90
42365;DHT22;28498;54.400;18.566;2022-08-05T10:06:38;31.00;99.90
42365;DHT22;28498;54.400;18.566;2022-08-05T10:09:24;30.90;99.90
42365;DHT22;28498;54.400;18.566;2022-08-05T10:12:06;31.00;99.90
42365;DHT22;28498;54.400;18.566;2022-08-05T10:15:19;31.00;99.90
42365;DHT22;28498;54.400;18.566;2022-08-05T10:20:35;31.00;99.90
42365;DHT22;28498;54.400;18.566;2022-08-05T10:23:03;31.10;99.90
42365;DHT22;28498;54.400;18.566;2022-08-05T10:29:28;31.10;99.90
42365;DHT22;28498;54.400;18.566;2022-08-05T10:32:19;31.30;99.90
42365;DHT22;28498;54.400;18.566;2022-08-05T10:35:06;31.30;99.90
42365;DHT22;28498;54.400;18.566;2022-08-05T10:37:35;31.50;99.90
42365;DHT22;28498;54.400;18.566;2022-08-05T10:40:40;31.60;99.90
42365;DHT22;28498;54.400;18.566;2022-08-05T10:46:10;31.60;99.90
42365;DHT22;28498;54.400;18.566;2022-08-05T10:48:46;31.90;99.90
42365;DHT22;28498;54.400;18.566;2022-08-05T10:51:24;31.90;99.90
42365;DHT22;28498;54.400;18.566;2022-08-05T10:53:59;31.80;99.90
42365;DHT22;28498;54.400;18.566;2022-08-05T10:56:46;32.00;99.90
42365;DHT22;28498;54.400;18.566;2022-08-05T10:59:24;32.00;99.90
42365;DHT22;28498;54.400;18.566;2022-08-05T11:02:13;31.90;99.90
42365;DHT22;28498;54.400;18.566;2022-08-05T11:05:07;32.10;99.90
42365;DHT22;28498;54.400;18.566;2022-08-05T11:08:01;32.20;99.90
42365;DHT22;28498;54.400;18.566;2022-08-05T11:10:48;32.30;99.90
42365;DHT22;28498;54.400;18.566;2022-08-05T11:13:40;32.40;99.90
42365;DHT22;28498;54.400;18.566;2022-08-05T11:16:24;32.40;99.90
42365;DHT22;28498;54.400;18.566;2022-08-05T11:19:26;32.70;99.90
42365;DHT22;28498;54.400;18.566;2022-08-05T11:33:37;32.70;99.90
42365;DHT22;28498;54.400;18.566;2022-08-05T11:39:08;32.90;99.90
42365;DHT22;28498;54.400;18.566;2022-08-05T11:41:36;33.10;99.90
42365;DHT22;28498;54.400;18.566;2022-08-05T11:44:24;33.10;99.90
42365;DHT22;28498;54.400;18.566;2022-08-05T11:47:21;33.30;99.90
42365;DHT22;28498;54.400;18.566;2022-08-05T11:50:09;33.50;99.90
42365;DHT22;28498;54.400;18.566;2022-08-05T11:52:40;33.10;99.90
42365;DHT22;28498;54.400;18.566;2022-08-05T11:55:11;33.10;99.90
42365;DHT22;28498;54.400;18.566;2022-08-05T11:57:44;33.00;99.90
42365;DHT22;28498;54.400;18.566;2022-08-05T12:00:31;32.90;99.90
42365;DHT22;28498;54.400;18.566;2022-08-05T12:03:20;33.00;99.90
42365;DHT22;28498;54.400;18.566;2022-08-05T12:06:03;33.00;99.90
42365;DHT22;28498;54.400;18.566;2022-08-05T12:08:52;33.10;99.90
42365;DHT22;28498;54.400;18.566;2022-08-05T12:11:22;33.10;99.90
42365;DHT22;28498;54.400;18.566;2022-08-05T12:16:35;32.90;99.90
42365;DHT22;28498;54.400;18.566;2022-08-05T12:19:05;33.00;99.90
42365;DHT22;28498;54.400;18.566;2022-08-05T12:21:40;33.20;99.90
42365;DHT22;28498;54.400;18.566;2022-08-05T12:24:12;33.10;99.90
42365;DHT22;28498;54.400;18.566;2022-08-05T12:31:48;33.50;99.90
42365;DHT22;28498;54.400;18.566;2022-08-05T12:34:21;33.40;99.90
42365;DHT22;28498;54.400;18.566;2022-08-05T12:36:52;33.40;99.90
42365;DHT22;28498;54.400;18.566;2022-08-05T12:39:19;33.30;99.90
42365;DHT22;28498;54.400;18.566;2022-08-05T12:41:49;33.40;99.90
42365;DHT22;28498;54.400;18.566;2022-08-05T12:44:23;33.40;99.90
42365;DHT22;28498;54.400;18.566;2022-08-05T12:46:59;33.50;99.90
42365;DHT22;28498;54.400;18.566;2022-08-05T12:49:55;33.70;99.90
42365;DHT22;28498;54.400;18.566;2022-08-05T12:52:32;33.70;99.90
42365;DHT22;28498;54.400;18.566;2022-08-05T12:57:52;33.70;99.90
42365;DHT22;28498;54.400;18.566;2022-08-05T13:00:44;33.80;99.90
42365;DHT22;28498;54.400;18.566;2022-08-05T13:03:37;33.80;99.90
42365;DHT22;28498;54.400;18.566;2022-08-05T13:06:13;33.80;99.90
42365;DHT22;28498;54.400;18.566;2022-08-05T13:08:41;33.80;99.90
42365;DHT22;28498;54.400;18.566;2022-08-05T13:11:22;33.60;99.90
42365;DHT22;28498;54.400;18.566;2022-08-05T13:16:48;33.50;99.90
42365;DHT22;28498;54.400;18.566;2022-08-05T13:19:15;33.50;99.90
42365;DHT22;28498;54.400;18.566;2022-08-05T13:21:45;33.60;99.90
42365;DHT22;28498;54.400;18.566;2022-08-05T13:24:19;33.50;99.90
42365;DHT22;28498;54.400;18.566;2022-08-05T13:27:06;33.70;99.90
42365;DHT22;28498;54.400;18.566;2022-08-05T13:29:42;33.70;99.90
42365;DHT22;28498;54.400;18.566;2022-08-05T13:32:29;33.80;99.90
42365;DHT22;28498;54.400;18.566;2022-08-05T13:35:05;33.80;99.90
42365;DHT22;28498;54.400;18.566;2022-08-05T13:37:32;33.80;99.90
42365;DHT22;28498;54.400;18.566;2022-08-05T13:40:01;33.80;99.90
42365;DHT22;28498;54.400;18.566;2022-08-05T13:42:45;33.50;99.90
42365;DHT22;28498;54.400;18.566;2022-08-05T13:45:12;33.30;99.90
42365;DHT22;28498;54.400;18.566;2022-08-05T13:47:46;33.50;99.90
42365;DHT22;28498;54.400;18.566;2022-08-05T13:50:33;33.50;99.90
42365;DHT22;28498;54.400;18.566;2022-08-05T13:53:00;33.70;99.90
42365;DHT22;28498;54.400;18.566;2022-08-05T13:55:34;33.90;99.90
42365;DHT22;28498;54.400;18.566;2022-08-05T13:58:14;34.10;99.90
42365;DHT22;28498;54.400;18.566;2022-08-05T14:00:56;34.10;99.90
42365;DHT22;28498;54.400;18.566;2022-08-05T14:03:23;34.50;99.90
42365;DHT22;28498;54.400;18.566;2022-08-05T14:05:50;34.80;99.90
42365;DHT22;28498;54.400;18.566;2022-08-05T14:08:37;35.10;99.90
42365;DHT22;28498;54.400;18.566;2022-08-05T14:14:52;35.10;99.90
42365;DHT22;28498;54.400;18.566;2022-08-05T14:17:19;35.40;99.90
42365;DHT22;28498;54.400;18.566;2022-08-05T14:19:52;35.90;99.90
42365;DHT22;28498;54.400;18.566;2022-08-05T14:22:26;36.20;99.90
42365;DHT22;28498;54.400;18.566;2022-08-05T14:25:00;36.20;99.90
42365;DHT22;28498;54.400;18.566;2022-08-05T14:27:31;36.40;99.90
42365;DHT22;28498;54.400;18.566;2022-08-05T14:29:58;36.80;99.90
42365;DHT22;28498;54.400;18.566;2022-08-05T14:32:27;36.50;99.90
42365;DHT22;28498;54.400;18.566;2022-08-05T14:34:54;36.60;99.90
42365;DHT22;28498;54.400;18.566;2022-08-05T14:37:23;36.40;99.90
42365;DHT22;28498;54.400;18.566;2022-08-05T14:40:10;36.30;99.90
42365;DHT22;28498;54.400;18.566;2022-08-05T14:42:42;36.30;99.90
42365;DHT22;28498;54.400;18.566;2022-08-05T14:45:09;36.40;99.90
42365;DHT22;28498;54.400;18.566;2022-08-05T14:47:36;36.10;99.90
42365;DHT22;28498;54.400;18.566;2022-08-05T14:50:23;36.40;99.90
42365;DHT22;28498;54.400;18.566;2022-08-05T14:52:51;35.80;99.90
42365;DHT22;28498;54.400;18.566;2022-08-05T14:55:25;35.70;99.90
42365;DHT22;28498;54.400;18.566;2022-08-05T14:58:06;35.70;99.90
42365;DHT22;28498;54.400;18.566;2022-08-05T15:00:37;35.70;99.90
42365;DHT22;28498;54.400;18.566;2022-08-05T15:03:23;35.80;99.90
42365;DHT22;28498;54.400;18.566;2022-08-05T15:05:50;36.00;99.90
42365;DHT22;28498;54.400;18.566;2022-08-05T15:08:37;35.90;99.90
42365;DHT22;28498;54.400;18.566;2022-08-05T15:11:24;36.20;99.90
42365;DHT22;28498;54.400;18.566;2022-08-05T15:14:11;36.20;99.90
42365;DHT22;28498;54.400;18.566;2022-08-05T15:16:58;35.80;99.90
42365;DHT22;28498;54.400;18.566;2022-08-05T15:19:25;35.60;99.90
42365;DHT22;28498;54.400;18.566;2022-08-05T15:21:52;35.70;99.90
42365;DHT22;28498;54.400;18.566;2022-08-05T15:24:26;35.60;99.90
42365;DHT22;28498;54.400;18.566;2022-08-05T15:26:53;35.60;99.90
42365;DHT22;28498;54.400;18.566;2022-08-05T15:29:22;35.70;99.90
42365;DHT22;28498;54.400;18.566;2022-08-05T15:31:56;36.10;99.90
42365;DHT22;28498;54.400;18.566;2022-08-05T15:34:29;36.20;99.90
42365;DHT22;28498;54.400;18.566;2022-08-05T15:37:00;35.50;99.90
42365;DHT22;28498;54.400;18.566;2022-08-05T15:39:40;35.50;99.90
42365;DHT22;28498;54.400;18.566;2022-08-05T15:42:27;35.50;99.90
42365;DHT22;28498;54.400;18.566;2022-08-05T15:45:14;35.50;99.90
42365;DHT22;28498;54.400;18.566;2022-08-05T15:47:42;35.10;99.90
42365;DHT22;28498;54.400;18.566;2022-08-05T15:50:11;35.20;99.90
42365;DHT22;28498;54.400;18.566;2022-08-05T15:52:42;35.40;99.90
42365;DHT22;28498;54.400;18.566;2022-08-05T15:55:20;35.60;99.90
42365;DHT22;28498;54.400;18.566;2022-08-05T15:57:50;35.80;99.90
42365;DHT22;28498;54.400;18.566;2022-08-05T16:00:18;35.80;99.90
42365;DHT22;28498;54.400;18.566;2022-08-05T16:02:58;35.90;99.90
42365;DHT22;28498;54.400;18.566;2022-08-05T16:05:25;36.00;99.90
42365;DHT22;28498;54.400;18.566;2022-08-05T16:07:54;35.60;99.90
42365;DHT22;28498;54.400;18.566;2022-08-05T16:10:22;35.50;99.90
42365;DHT22;28498;54.400;18.566;2022-08-05T16:12:52;35.70;99.90
42365;DHT22;28498;54.400;18.566;2022-08-05T16:15:22;35.10;99.90
42365;DHT22;28498;54.400;18.566;2022-08-05T16:17:49;35.10;99.90
42365;DHT22;28498;54.400;18.566;2022-08-05T16:20:24;34.60;99.90
42365;DHT22;28498;54.400;18.566;2022-08-05T16:22:50;34.20;99.90
42365;DHT22;28498;54.400;18.566;2022-08-05T16:25:17;33.90;99.90
42365;DHT22;28498;54.400;18.566;2022-08-05T16:27:44;33.40;99.90
42365;DHT22;28498;54.400;18.566;2022-08-05T16:30:30;33.00;99.90
42365;DHT22;28498;54.400;18.566;2022-08-05T16:32:58;32.00;99.90
42365;DHT22;28498;54.400;18.566;2022-08-05T16:35:26;31.20;99.90
42365;DHT22;28498;54.400;18.566;2022-08-05T16:37:59;30.80;99.90
42365;DHT22;28498;54.400;18.566;2022-08-05T16:40:42;30.40;99.90
42365;DHT22;28498;54.400;18.566;2022-08-05T16:43:17;30.30;99.90
42365;DHT22;28498;54.400;18.566;2022-08-05T16:45:46;30.00;99.90
42365;DHT22;28498;54.400;18.566;2022-08-05T16:48:32;30.00;99.90
42365;DHT22;28498;54.400;18.566;2022-08-05T16:51:01;29.80;99.90
42365;DHT22;28498;54.400;18.566;2022-08-05T16:53:39;29.80;99.90
42365;DHT22;28498;54.400;18.566;2022-08-05T16:56:28;29.50;99.90
42365;DHT22;28498;54.400;18.566;2022-08-05T16:58:56;29.30;99.90
42365;DHT22;28498;54.400;18.566;2022-08-05T17:01:23;29.00;99.90
42365;DHT22;28498;54.400;18.566;2022-08-05T17:03:50;28.60;99.90
42365;DHT22;28498;54.400;18.566;2022-08-05T17:06:18;28.50;99.90
42365;DHT22;28498;54.400;18.566;2022-08-05T17:08:50;28.30;99.90
42365;DHT22;28498;54.400;18.566;2022-08-05T17:11:23;28.20;99.90
42365;DHT22;28498;54.400;18.566;2022-08-05T17:13:52;28.00;99.90
42365;DHT22;28498;54.400;18.566;2022-08-05T17:16:32;27.80;99.90
42365;DHT22;28498;54.400;18.566;2022-08-05T17:19:05;27.70;99.90
42365;DHT22;28498;54.400;18.566;2022-08-05T17:21:36;27.60;99.90
42365;DHT22;28498;54.400;18.566;2022-08-05T17:24:06;27.50;99.90
42365;DHT22;28498;54.400;18.566;2022-08-05T17:26:55;27.30;99.90
42365;DHT22;28498;54.400;18.566;2022-08-05T17:29:23;27.00;99.90